Terminal Aerodrome Forecast
Issued by NWS

Current Version | Previous Version | Text Only | Print | Product List | Glossary On
Versions: 1 2 3 4 5 6 7 8 9 10 11 12 13 14 15 16 17 18 19 20 21 22 23 24 25 26 27
000
FTUS42 KGSP 301728 AAA
TAFHKY
TAF AMD
KHKY 301728Z 3017/3118 30012G22KT P6SM FEW250
     FM302300 30008KT P6SM FEW220
     FM310200 27004KT P6SM FEW180
     FM311500 21008G16KT P6SM FEW120=

USA.gov is the U.S. government's official web portal to all federal, state and local government web resources and services.